Podhale (bahama Islands) — C6TX9 — position and weather

sailwx.info

Track history (hours):
 
Tides and Currents Weather Stations Pressure Air Temp Water Temp Dewpoint Dewpoint Depression Visibility Wind Speed Wind Dir Waves Ship Positions

Podhale (bahama Islands)

Last reported at 2014-Dec-20 04:26 UTC. Time now 2014-Dec-20 17:58 UTC.
Position N 46°21' E 031°00'.

Length 190 m; beam 24 m.

Type: Cargo ship. MMSI: 311831000.

Date/timePositionNaut miles runAvg speedWind from/ knotsBaromVisibWave heightAir tempDewpointWater temp
2014-Dec-20 04:26N 46°21' E 031°00'0 0.0
2014-Dec-20 02:32N 46°21' E 031°00'0 0.0
2014-Dec-19 16:23N 46°21' E 031°00'0 0.0
2014-Dec-19 15:17N 46°21' E 031°00'0 0.0
2014-Dec-19 13:11N 46°21' E 031°00'0 0.0
2014-Dec-19 12:26N 46°21' E 031°00'0 0.0
2014-Dec-19 11:11N 46°21' E 031°00'0 0.0
2014-Dec-19 10:29N 46°21' E 031°00'0 0.0
2014-Dec-19 08:26N 46°21' E 031°00'0 0.0
2014-Dec-19 07:29N 46°21' E 031°00'0 0.0
2014-Dec-19 05:17N 46°21' E 031°00'0 0.0
2014-Dec-19 00:20N 46°21' E 030°60'0 0.0
2014-Dec-18 23:11N 46°21' E 030°60'0 0.0
2014-Dec-18 21:26N 46°21' E 030°60'0 0.0
2014-Dec-18 20:23N 46°21' E 030°60'0 0.0
2014-Dec-18 19:32N 46°21' E 030°60'333 8.3
2014-Dec-17 03:29N 40°59' E 028°60'5 5.2
2014-Dec-17 02:33N 40°55' E 028°60'8 8.1
2014-Dec-17 01:33N 40°48' E 028°53'4 2.0
2014-Dec-16 23:30N 40°46' E 028°49'1 0.5
2014-Dec-16 22:24N 40°46' E 028°50'1 0.7
2014-Dec-16 21:18N 40°46' E 028°51'1 0.6
2014-Dec-16 20:30N 40°46' E 028°52'1 0.5
2014-Dec-16 19:24N 40°46' E 028°52'0 0.5
2014-Dec-16 18:30N 40°46' E 028°53'0 0.3
2014-Dec-16 17:30N 40°46' E 028°53'1 0.5
2014-Dec-16 16:12N 40°46' E 028°54'0 0.5
2014-Dec-16 15:24N 40°46' E 028°54'0 0.5
2014-Dec-16 14:30N 40°46' E 028°55'1 1.1
2014-Dec-16 13:33N 40°47' E 028°56'9 8.9
2014-Dec-16 12:31N 40°56' E 028°56'3 1.1
2014-Dec-16 10:14N 40°58' E 028°53'0 0.0
2014-Dec-16 09:32N 40°58' E 028°53'0 0.0
2014-Dec-16 06:08N 40°58' E 028°53'145 4.4
2014-Dec-14 21:25N 39°57' E 025°60'  
Track history (hours):
 
Tides and Currents Weather Stations Pressure Air Temp Water Temp Dewpoint Dewpoint Depression Visibility Wind Speed Wind Dir Waves Ship Positions

Podhale (bahama Islands)

Last reported at 2014-Dec-20 04:26 UTC. Time now 2014-Dec-20 17:58 UTC.
Position N 46°21' E 031°00'.

Length 190 m; beam 24 m.

Type: Cargo ship. MMSI: 311831000.

Date/timePositionNaut miles runAvg speedWind from/ knotsBaromVisibWave heightAir tempDewpointWater temp
2014-Dec-20 04:26N 46°21' E 031°00'0 0.0
2014-Dec-20 02:32N 46°21' E 031°00'0 0.0
2014-Dec-19 16:23N 46°21' E 031°00'0 0.0
2014-Dec-19 15:17N 46°21' E 031°00'0 0.0
2014-Dec-19 13:11N 46°21' E 031°00'0 0.0
2014-Dec-19 12:26N 46°21' E 031°00'0 0.0
2014-Dec-19 11:11N 46°21' E 031°00'0 0.0
2014-Dec-19 10:29N 46°21' E 031°00'0 0.0
2014-Dec-19 08:26N 46°21' E 031°00'0 0.0
2014-Dec-19 07:29N 46°21' E 031°00'0 0.0
2014-Dec-19 05:17N 46°21' E 031°00'0 0.0
2014-Dec-19 00:20N 46°21' E 030°60'0 0.0
2014-Dec-18 23:11N 46°21' E 030°60'0 0.0
2014-Dec-18 21:26N 46°21' E 030°60'0 0.0
2014-Dec-18 20:23N 46°21' E 030°60'0 0.0
2014-Dec-18 19:32N 46°21' E 030°60'333 8.3
2014-Dec-17 03:29N 40°59' E 028°60'5 5.2
2014-Dec-17 02:33N 40°55' E 028°60'8 8.1
2014-Dec-17 01:33N 40°48' E 028°53'4 2.0
2014-Dec-16 23:30N 40°46' E 028°49'1 0.5
2014-Dec-16 22:24N 40°46' E 028°50'1 0.7
2014-Dec-16 21:18N 40°46' E 028°51'1 0.6
2014-Dec-16 20:30N 40°46' E 028°52'1 0.5
2014-Dec-16 19:24N 40°46' E 028°52'0 0.5
2014-Dec-16 18:30N 40°46' E 028°53'0 0.3
2014-Dec-16 17:30N 40°46' E 028°53'1 0.5
2014-Dec-16 16:12N 40°46' E 028°54'0 0.5
2014-Dec-16 15:24N 40°46' E 028°54'0 0.5
2014-Dec-16 14:30N 40°46' E 028°55'1 1.1
2014-Dec-16 13:33N 40°47' E 028°56'9 8.9
2014-Dec-16 12:31N 40°56' E 028°56'3 1.1
2014-Dec-16 10:14N 40°58' E 028°53'0 0.0
2014-Dec-16 09:32N 40°58' E 028°53'0 0.0
2014-Dec-16 06:08N 40°58' E 028°53'145 4.4
2014-Dec-14 21:25N 39°57' E 025°60'  

Dump ship's entire track history